createdAt,value
2018-12-20T00:00:56.014Z,17.43
2018-12-20T00:03:43.853Z,12.63
2018-12-20T00:06:17.962Z,10.90
2018-12-20T00:11:35.257Z,17.30
2018-12-20T00:14:08.842Z,16.53
2018-12-20T00:19:40.363Z,12.53
2018-12-20T00:22:17.597Z,15.87
2018-12-20T00:24:52.771Z,17.37
2018-12-20T00:27:43.913Z,11.43
2018-12-20T00:30:21.636Z,10.83
2018-12-20T00:35:42.427Z,9.13
2018-12-20T00:38:15.848Z,15.43
2018-12-20T00:40:49.631Z,12.77
2018-12-20T00:43:28.833Z,11.90
2018-12-20T00:48:52.085Z,14.43
2018-12-20T00:51:38.762Z,9.27
2018-12-20T00:54:15.549Z,12.03
2018-12-20T00:56:54.052Z,12.33
2018-12-20T00:59:32.516Z,10.50
2018-12-20T01:02:06.398Z,13.10
2018-12-20T01:07:43.560Z,14.10
2018-12-20T01:10:27.166Z,15.67
2018-12-20T01:13:01.418Z,10.37
2018-12-20T01:18:19.180Z,19.30
2018-12-20T01:20:52.837Z,11.80
2018-12-20T01:23:38.133Z,15.80
2018-12-20T01:26:11.539Z,12.47
2018-12-20T01:28:45.090Z,14.73
2018-12-20T01:34:03.299Z,8.73
2018-12-20T01:36:36.881Z,17.60
2018-12-20T01:41:57.448Z,15.70
2018-12-20T01:52:48.702Z,12.83
2018-12-20T01:55:36.825Z,11.37
2018-12-20T01:58:15.846Z,10.97
2018-12-20T02:00:54.266Z,10.20
2018-12-20T02:03:29.587Z,14.73
2018-12-20T02:07:06.154Z,13.50
2018-12-20T02:09:44.933Z,15.90
2018-12-20T02:12:21.983Z,14.80
2018-12-20T02:17:40.067Z,14.70
2018-12-20T02:25:50.382Z,14.63
2018-12-20T02:31:08.012Z,13.80
2018-12-20T02:33:41.662Z,12.90
2018-12-20T02:39:01.091Z,12.00
2018-12-20T02:41:34.364Z,12.03
2018-12-20T02:46:52.688Z,14.40
2018-12-20T02:52:11.668Z,8.77
2018-12-20T02:54:56.467Z,12.63
2018-12-20T02:57:32.174Z,11.03
2018-12-20T03:02:51.636Z,8.97
2018-12-20T03:05:25.079Z,11.10
2018-12-20T03:08:08.110Z,14.27
2018-12-20T03:10:56.160Z,10.27
2018-12-20T03:13:30.861Z,8.57
2018-12-20T03:16:04.601Z,10.90
2018-12-20T03:18:39.577Z,12.17
2018-12-20T03:21:19.845Z,8.47
2018-12-20T03:23:53.657Z,9.23
2018-12-20T03:26:27.475Z,7.07
2018-12-20T03:29:14.290Z,9.50
2018-12-20T03:31:50.515Z,8.97
2018-12-20T03:34:34.230Z,6.80
2018-12-20T03:37:07.855Z,6.37
2018-12-20T03:39:49.668Z,9.07
2018-12-20T03:42:24.776Z,8.23
2018-12-20T03:45:13.285Z,10.50
2018-12-20T03:47:46.999Z,7.83
2018-12-20T03:55:50.880Z,8.93
2018-12-20T03:58:24.435Z,7.80
2018-12-20T04:01:14.530Z,4.97
2018-12-20T04:03:52.031Z,6.37
2018-12-20T04:06:30.330Z,7.37
2018-12-20T04:09:04.910Z,9.00
2018-12-20T04:14:24.792Z,8.70
2018-12-20T04:17:10.972Z,8.90
2018-12-20T04:19:44.624Z,6.40
2018-12-20T04:22:17.926Z,7.33
2018-12-20T04:27:44.245Z,9.87
2018-12-20T04:30:21.329Z,7.50
2018-12-20T04:33:08.967Z,6.20
2018-12-20T04:35:44.217Z,7.73
2018-12-20T04:38:17.841Z,7.50
2018-12-20T04:40:57.640Z,10.40
2018-12-20T04:43:33.750Z,7.40
2018-12-20T04:46:07.429Z,6.47
2018-12-20T04:48:42.599Z,4.67
2018-12-20T04:51:25.455Z,6.43
2018-12-20T04:53:58.698Z,5.43
2018-12-20T04:56:32.217Z,3.53
2018-12-20T05:01:49.473Z,6.47
2018-12-20T05:04:22.709Z,6.13
2018-12-20T05:06:57.368Z,8.30
2018-12-20T05:09:48.247Z,8.67
2018-12-20T05:12:29.264Z,5.00
2018-12-20T05:15:02.982Z,6.17
2018-12-20T05:17:36.091Z,8.90
2018-12-20T05:22:49.198Z,7.03
2018-12-20T05:25:41.109Z,6.53
2018-12-20T05:28:15.181Z,6.43
2018-12-20T05:30:48.574Z,5.03
2018-12-20T05:33:26.923Z,7.70
2018-12-20T05:36:04.877Z,3.73
2018-12-20T05:38:38.279Z,4.67
2018-12-20T05:41:18.330Z,5.20
2018-12-20T05:43:55.800Z,5.83
2018-12-20T05:46:30.011Z,6.87
2018-12-20T05:49:03.462Z,5.03
2018-12-20T05:51:39.109Z,3.83
2018-12-20T05:54:19.537Z,5.47
2018-12-20T05:56:53.228Z,4.97
2018-12-20T05:59:26.741Z,5.70
2018-12-20T06:02:14.119Z,2.80
2018-12-20T06:04:48.629Z,4.37
2018-12-20T06:07:32.234Z,2.87
2018-12-20T06:10:05.840Z,3.60
2018-12-20T06:12:39.225Z,3.03
2018-12-20T06:15:17.557Z,3.27
2018-12-20T06:18:13.095Z,3.13
2018-12-20T06:20:47.208Z,1.67
2018-12-20T06:23:28.831Z,2.67
2018-12-20T06:26:03.582Z,6.77
2018-12-20T06:28:36.735Z,8.33
2018-12-20T06:31:11.709Z,7.03
2018-12-20T06:33:59.693Z,11.83
2018-12-20T06:36:36.590Z,9.60
2018-12-20T06:39:13.500Z,11.43
2018-12-20T06:41:48.644Z,9.67
2018-12-20T06:44:22.491Z,7.23
2018-12-20T06:46:58.934Z,10.27
2018-12-20T06:49:35.262Z,12.07
2018-12-20T06:52:24.666Z,7.67
2018-12-20T06:55:00.181Z,7.23
2018-12-20T06:57:34.490Z,9.23
2018-12-20T07:00:18.660Z,10.93
2018-12-20T07:02:52.119Z,12.27
2018-12-20T07:05:26.533Z,10.30
2018-12-20T07:11:00.211Z,7.93
2018-12-20T07:13:38.283Z,8.60
2018-12-20T07:16:17.173Z,8.60
2018-12-20T07:18:50.999Z,11.30
2018-12-20T07:24:23.628Z,9.17
2018-12-20T07:26:59.122Z,7.23
2018-12-20T07:29:39.930Z,9.03
2018-12-20T07:32:15.594Z,10.07
2018-12-20T07:34:50.476Z,4.83
2018-12-20T07:37:25.166Z,7.93
2018-12-20T07:40:22.832Z,8.60
2018-12-20T07:42:57.769Z,5.87
2018-12-20T07:45:32.646Z,5.07
2018-12-20T07:48:14.263Z,4.53
2018-12-20T07:50:48.846Z,4.77
2018-12-20T07:53:22.901Z,3.60
2018-12-20T07:59:13.362Z,4.70
2018-12-20T08:01:47.288Z,2.27
2018-12-20T08:07:02.629Z,3.13
2018-12-20T08:09:36.671Z,4.20
2018-12-20T08:12:10.879Z,5.93
2018-12-20T08:14:59.384Z,5.03
2018-12-20T08:20:16.771Z,6.10
2018-12-20T08:22:50.191Z,3.87
2018-12-20T08:25:31.942Z,5.27
2018-12-20T08:28:06.799Z,2.43
2018-12-20T08:31:20.272Z,2.67
2018-12-20T08:33:58.404Z,2.77
2018-12-20T08:36:31.684Z,4.10
2018-12-20T08:39:13.599Z,4.40
2018-12-20T08:41:51.644Z,1.87
2018-12-20T08:44:39.213Z,3.70
2018-12-20T08:47:12.365Z,2.80
2018-12-20T08:49:52.593Z,3.67
2018-12-20T08:52:37.579Z,3.40
2018-12-20T08:55:15.719Z,3.20
2018-12-20T08:57:49.047Z,3.80
2018-12-20T09:00:36.050Z,4.27
2018-12-20T09:03:10.580Z,1.67
2018-12-20T09:05:44.035Z,2.33
2018-12-20T09:08:25.510Z,4.03
2018-12-20T09:10:59.616Z,4.73
2018-12-20T09:13:33.403Z,2.10
2018-12-20T09:18:54.921Z,1.83
2018-12-20T09:21:28.427Z,2.43
2018-12-20T09:24:10.987Z,0.97
2018-12-20T09:26:46.358Z,3.77
2018-12-20T09:32:03.767Z,3.23
2018-12-20T09:34:52.283Z,2.03
2018-12-20T09:37:25.855Z,2.10
2018-12-20T09:40:00.149Z,1.80
2018-12-20T09:42:44.089Z,4.63
2018-12-20T09:50:57.599Z,4.03
2018-12-20T09:53:47.845Z,2.77
2018-12-20T09:56:26.079Z,4.87
2018-12-20T09:58:59.173Z,2.23
2018-12-20T10:04:31.652Z,2.47
2018-12-20T10:07:05.856Z,2.43
2018-12-20T10:09:39.172Z,3.73
2018-12-20T10:14:56.298Z,2.90
2018-12-20T10:17:29.568Z,3.63
2018-12-20T10:22:48.145Z,4.13
2018-12-20T10:25:21.302Z,2.00
2018-12-20T10:27:54.935Z,2.13
2018-12-20T10:40:04.981Z,1.63
2018-12-20T10:45:26.421Z,2.17
2018-12-20T10:50:44.147Z,3.87
2018-12-20T10:56:02.257Z,3.10
2018-12-20T10:58:35.301Z,3.33
2018-12-20T11:04:05.670Z,3.63
2018-12-20T11:06:57.827Z,4.43
2018-12-20T11:09:39.867Z,2.30
2018-12-20T11:17:48.787Z,3.33
2018-12-20T11:20:24.916Z,2.80
2018-12-20T11:25:45.310Z,4.37
2018-12-20T11:31:14.083Z,3.43
2018-12-20T11:34:04.265Z,1.53
2018-12-20T11:36:38.385Z,3.50
2018-12-20T11:39:11.715Z,1.63
2018-12-20T11:44:29.334Z,2.30
2018-12-20T11:47:28.106Z,2.30
2018-12-20T11:50:06.233Z,2.87
2018-12-20T11:52:42.476Z,1.20
2018-12-20T11:55:19.655Z,2.27
2018-12-20T11:57:55.902Z,2.40
2018-12-20T12:00:29.503Z,3.90
2018-12-20T12:03:15.801Z,4.53
2018-12-20T12:05:49.575Z,3.47
2018-12-20T12:08:22.845Z,3.80
2018-12-20T12:10:55.949Z,2.07
2018-12-20T12:13:33.524Z,1.70
2018-12-20T12:16:11.651Z,1.27
2018-12-20T12:18:45.611Z,1.97
2018-12-20T12:21:34.877Z,1.60
2018-12-20T12:24:08.303Z,3.87
2018-12-20T12:29:39.644Z,3.03
2018-12-20T12:32:13.361Z,1.50
2018-12-20T12:37:51.560Z,1.37
2018-12-20T12:40:24.833Z,2.63
2018-12-20T12:48:31.740Z,3.67
2018-12-20T12:51:18.587Z,1.80
2018-12-20T12:59:23.733Z,1.17
2018-12-20T13:01:58.634Z,3.20
2018-12-20T13:07:57.420Z,2.57
2018-12-20T13:13:14.659Z,1.77
2018-12-20T13:18:33.671Z,2.77
2018-12-20T13:21:23.128Z,4.07
2018-12-20T13:23:56.583Z,2.73
2018-12-20T13:26:37.051Z,2.97
2018-12-20T13:29:24.077Z,1.93
2018-12-20T13:32:01.171Z,4.03
2018-12-20T13:34:35.057Z,2.97
2018-12-20T13:37:19.571Z,3.13
2018-12-20T13:39:54.787Z,5.27
2018-12-20T13:42:27.997Z,3.60
2018-12-20T13:45:09.711Z,2.23
2018-12-20T13:47:46.439Z,3.50
2018-12-20T13:53:18.186Z,1.20
2018-12-20T13:55:54.809Z,1.87
2018-12-20T13:58:28.439Z,3.10
2018-12-20T14:01:08.664Z,2.93
2018-12-20T14:03:45.921Z,2.30
2018-12-20T14:09:19.731Z,2.63
2018-12-20T14:11:54.056Z,5.20
2018-12-20T14:14:35.695Z,3.73
2018-12-20T14:17:12.891Z,2.50
2018-12-20T14:25:57.164Z,1.80
2018-12-20T14:28:37.882Z,3.20
2018-12-20T14:31:14.950Z,1.80
2018-12-20T14:33:48.390Z,2.40
2018-12-20T14:39:22.637Z,1.87
2018-12-20T14:41:56.112Z,2.13
2018-12-20T14:47:23.640Z,2.97
2018-12-20T14:53:02.991Z,3.90
2018-12-20T14:55:37.718Z,3.73
2018-12-20T14:58:11.032Z,3.43
2018-12-20T15:09:33.008Z,2.23
2018-12-20T15:14:52.472Z,5.03
2018-12-20T15:23:16.143Z,3.17
2018-12-20T15:28:43.070Z,4.60
2018-12-20T15:31:20.302Z,2.57
2018-12-20T15:33:53.546Z,3.20
2018-12-20T15:45:03.580Z,2.50
2018-12-20T15:50:23.736Z,3.50
2018-12-20T15:55:42.589Z,3.40
2018-12-20T15:58:15.614Z,1.97
2018-12-20T16:03:33.601Z,5.70
2018-12-20T16:06:20.544Z,5.73
2018-12-20T16:08:55.137Z,2.60
2018-12-20T16:11:36.041Z,3.00
2018-12-20T16:17:10.191Z,4.73
2018-12-20T16:20:04.201Z,2.30
2018-12-20T16:22:37.891Z,2.93
2018-12-20T16:25:18.067Z,1.53
2018-12-20T16:27:55.150Z,2.77
2018-12-20T16:33:12.996Z,3.63
2018-12-20T16:36:01.598Z,4.47
2018-12-20T16:38:35.947Z,3.57
2018-12-20T16:41:09.272Z,3.07
2018-12-20T16:43:55.983Z,3.47
2018-12-20T16:52:18.423Z,1.40
2018-12-20T17:03:26.557Z,3.17
2018-12-20T17:05:59.913Z,2.67
2018-12-20T17:08:33.353Z,3.37
2018-12-20T17:11:19.633Z,1.67
2018-12-20T17:19:39.568Z,2.20
2018-12-20T17:22:13.822Z,1.70
2018-12-20T17:24:47.268Z,2.20
2018-12-20T17:27:27.413Z,0.67
2018-12-20T17:33:07.049Z,1.93
2018-12-20T17:35:40.453Z,0.80
2018-12-20T17:38:13.470Z,1.63
2018-12-20T17:40:54.049Z,4.00
2018-12-20T17:43:32.988Z,1.60
2018-12-20T17:46:15.633Z,1.93
2018-12-20T17:49:05.363Z,1.73
2018-12-20T17:51:40.097Z,2.20
2018-12-20T17:56:58.869Z,1.50
2018-12-20T18:02:30.292Z,1.83
2018-12-20T18:05:07.830Z,0.80
2018-12-20T18:17:17.410Z,1.20
2018-12-20T18:19:55.188Z,0.30
2018-12-20T18:22:37.717Z,1.40
2018-12-20T18:25:23.834Z,0.50
2018-12-20T18:27:57.306Z,0.43
2018-12-20T18:36:07.975Z,0.73
2018-12-20T18:38:49.406Z,1.47
2018-12-20T18:41:30.053Z,0.30
2018-12-20T18:44:08.595Z,1.10
2018-12-20T18:46:43.169Z,1.07
2018-12-20T18:49:16.822Z,0.77
2018-12-20T18:52:00.026Z,0.70
2018-12-20T18:54:33.132Z,1.47
2018-12-20T18:57:06.901Z,0.60
2018-12-20T18:59:50.364Z,0.33
2018-12-20T19:02:27.783Z,2.63
2018-12-20T19:05:03.484Z,0.47
2018-12-20T19:07:39.228Z,1.83
2018-12-20T19:10:15.388Z,1.00
2018-12-20T19:12:50.479Z,4.50
2018-12-20T19:15:34.763Z,4.43
2018-12-20T19:18:10.739Z,4.53
2018-12-20T19:20:47.297Z,5.30
2018-12-20T19:23:24.199Z,5.97
2018-12-20T19:26:02.800Z,2.97
2018-12-20T19:31:20.040Z,2.83
2018-12-20T19:34:07.610Z,4.73
2018-12-20T19:36:42.504Z,3.60
2018-12-20T19:39:24.488Z,4.20
2018-12-20T19:42:03.046Z,3.97
2018-12-20T19:44:38.742Z,6.60
2018-12-20T19:47:12.701Z,6.00
2018-12-20T19:49:47.592Z,7.70
2018-12-20T19:52:25.546Z,5.80
2018-12-20T19:55:04.103Z,6.97
2018-12-20T19:57:52.445Z,8.73
2018-12-20T20:00:29.526Z,10.50
2018-12-20T20:03:12.142Z,8.50
2018-12-20T20:05:53.497Z,8.93
2018-12-20T20:11:10.205Z,6.70
2018-12-20T20:13:45.557Z,9.53
2018-12-20T20:16:22.484Z,12.63
2018-12-20T20:18:59.060Z,7.73
2018-12-20T20:21:35.232Z,9.87
2018-12-20T20:24:10.888Z,6.33
2018-12-20T20:26:45.920Z,8.47
2018-12-20T20:29:20.477Z,7.43
2018-12-20T20:31:54.929Z,8.93
2018-12-20T20:34:28.587Z,7.43
2018-12-20T20:37:01.777Z,7.53
2018-12-20T20:39:34.731Z,9.97
2018-12-20T20:42:12.142Z,6.53
2018-12-20T20:44:46.659Z,6.10
2018-12-20T20:47:24.628Z,8.40
2018-12-20T20:49:58.076Z,10.60
2018-12-20T20:52:31.380Z,9.73
2018-12-20T20:55:05.781Z,6.57
2018-12-20T20:57:39.082Z,4.37
2018-12-20T21:00:17.399Z,11.07
2018-12-20T21:02:50.613Z,9.40
2018-12-20T21:05:26.989Z,10.17
2018-12-20T21:08:01.212Z,12.27
2018-12-20T21:10:35.435Z,5.17
2018-12-20T21:13:12.199Z,8.70
2018-12-20T21:15:46.512Z,11.30
2018-12-20T21:18:19.940Z,9.90
2018-12-20T21:20:54.496Z,5.03
2018-12-20T21:23:34.210Z,8.70
2018-12-20T21:26:08.117Z,5.47
2018-12-20T21:28:41.599Z,7.60
2018-12-20T21:31:19.942Z,10.60
2018-12-20T21:33:53.516Z,11.40
2018-12-20T21:36:26.625Z,6.80
2018-12-20T21:39:01.574Z,4.77
2018-12-20T21:41:40.607Z,5.00
2018-12-20T21:44:15.471Z,1.97
2018-12-20T21:46:49.121Z,4.80
2018-12-20T21:49:22.869Z,3.83
2018-12-20T21:52:01.501Z,5.37
2018-12-20T21:54:39.020Z,4.80
2018-12-20T21:57:12.944Z,9.20
2018-12-20T22:00:00.948Z,8.20
2018-12-20T22:02:29.905Z,9.07
2018-12-20T22:05:05.707Z,5.23
2018-12-20T22:07:43.618Z,6.80
2018-12-20T22:10:19.489Z,8.10
2018-12-20T22:12:54.615Z,5.03
2018-12-20T22:15:28.948Z,8.40
2018-12-20T22:18:02.053Z,6.10
2018-12-20T22:20:38.395Z,9.23
2018-12-20T22:23:15.379Z,9.10
2018-12-20T22:26:00.134Z,9.30
2018-12-20T22:28:41.037Z,10.33
2018-12-20T22:33:59.954Z,9.43
2018-12-20T22:36:42.640Z,8.70
2018-12-20T22:39:21.590Z,7.83
2018-12-20T22:41:56.610Z,9.43
2018-12-20T22:44:30.678Z,6.17
2018-12-20T22:47:08.864Z,6.13
2018-12-20T22:49:44.308Z,9.80
2018-12-20T22:52:23.883Z,8.57
2018-12-20T22:55:00.975Z,6.77
2018-12-20T22:57:41.420Z,10.40
2018-12-20T23:00:23.711Z,6.63
2018-12-20T23:03:08.633Z,9.87
2018-12-20T23:05:50.560Z,6.27
2018-12-20T23:08:34.204Z,9.57
2018-12-20T23:11:10.599Z,8.43
2018-12-20T23:13:46.008Z,6.23
2018-12-20T23:16:24.456Z,8.60
2018-12-20T23:19:11.036Z,8.37
2018-12-20T23:21:47.112Z,7.07
2018-12-20T23:24:24.889Z,11.53
2018-12-20T23:27:04.519Z,3.03
2018-12-20T23:29:43.339Z,6.13
2018-12-20T23:32:20.034Z,5.73
2018-12-20T23:34:55.958Z,6.00
2018-12-20T23:37:35.621Z,5.43
2018-12-20T23:40:10.867Z,4.67
2018-12-20T23:42:56.730Z,6.77
2018-12-20T23:45:34.672Z,5.67
2018-12-20T23:48:13.527Z,5.50
2018-12-20T23:50:49.935Z,7.27
2018-12-20T23:53:24.459Z,8.50
2018-12-20T23:55:59.816Z,7.77
2018-12-20T23:58:37.403Z,6.70
